Archival Weather

Fukuoka

Fukuoka, Japan (RJFF)

Report from: Tuesday, August 16, 2022 3:23 PM JST
Current time: Sunday, November 27, 2022 6:12 PM JST

Current weather
Weather history
Weather forecast

Present weatherThunderstorm with rain, mist
Temperature28.0°C (82.4°F)
Heat index33.5°C (92.3°F)
Dew point26.0°C (78.8°F)
Winds 9 kts (4.6 m/s, 10.4 mph) Vrb
Winds variableWinds variable from Southeast (140°) to South-Southwest (200°)
Visibility2.5 mi. (4 km)
Clouds Few clouds 800 ft. (244 m)
Few clouds with cumulonimbus 2,000 ft. (610 m)
Scattered clouds 3,000 ft. (914 m)
Ceiling: Broken clouds 4,000 ft. (1,219 m)
Altimeter29.74 in.Hg (1007 mB)
Precip. events C 3:02 PM
Relative humidity89 %
Density altitude2,154 ft. (657 m)
Remarks Special weather observation
Thunderstorm south moving northeast
Flight conditions Instrument Meteorological Conditions
Raw dataSPJP31 KWBC 160637 SPECI RJFF 160623Z 18009KT 140V200 4000 TSRA BR FEW008 FEW020CB SCT030 BKN040 28/26 Q1007 RMK 1ST008 2CB020 3CU030 5CU040 A2974 FBL TS 15KM S MOV NE
An error has occurred. This application may no longer respond until reloaded. Reload 🗙